sensor_id;sensor_type;location;lat;lon;timestamp;P1;durP1;ratioP1;P2;durP2;ratioP2
17595;SDS011;8916;47.086;15.920;2023-01-09T00:01:33;41.65;;;24.27;;
17595;SDS011;8916;47.086;15.920;2023-01-09T00:04:05;45.55;;;25.95;;
17595;SDS011;8916;47.086;15.920;2023-01-09T00:06:36;46.45;;;24.65;;
17595;SDS011;8916;47.086;15.920;2023-01-09T00:09:06;46.80;;;25.50;;
17595;SDS011;8916;47.086;15.920;2023-01-09T00:11:35;46.55;;;24.90;;
17595;SDS011;8916;47.086;15.920;2023-01-09T00:14:07;49.17;;;26.30;;
17595;SDS011;8916;47.086;15.920;2023-01-09T00:16:37;40.13;;;23.30;;
17595;SDS011;8916;47.086;15.920;2023-01-09T00:19:06;42.70;;;23.48;;
17595;SDS011;8916;47.086;15.920;2023-01-09T00:21:36;53.08;;;25.45;;
17595;SDS011;8916;47.086;15.920;2023-01-09T00:24:06;41.45;;;23.00;;
17595;SDS011;8916;47.086;15.920;2023-01-09T00:26:36;41.88;;;23.38;;
17595;SDS011;8916;47.086;15.920;2023-01-09T00:29:09;41.03;;;23.15;;
17595;SDS011;8916;47.086;15.920;2023-01-09T00:31:39;36.15;;;21.17;;
17595;SDS011;8916;47.086;15.920;2023-01-09T00:34:10;40.85;;;21.45;;
17595;SDS011;8916;47.086;15.920;2023-01-09T00:36:39;38.65;;;20.48;;
17595;SDS011;8916;47.086;15.920;2023-01-09T00:39:09;35.50;;;19.95;;
17595;SDS011;8916;47.086;15.920;2023-01-09T00:41:39;38.28;;;19.90;;
17595;SDS011;8916;47.086;15.920;2023-01-09T00:44:14;41.97;;;20.40;;
17595;SDS011;8916;47.086;15.920;2023-01-09T00:46:51;43.38;;;22.42;;
17595;SDS011;8916;47.086;15.920;2023-01-09T00:49:25;36.28;;;21.35;;
17595;SDS011;8916;47.086;15.920;2023-01-09T00:51:58;39.83;;;22.50;;
17595;SDS011;8916;47.086;15.920;2023-01-09T00:54:29;42.55;;;21.15;;
17595;SDS011;8916;47.086;15.920;2023-01-09T00:56:59;36.20;;;19.88;;
17595;SDS011;8916;47.086;15.920;2023-01-09T00:59:30;36.08;;;19.27;;
17595;SDS011;8916;47.086;15.920;2023-01-09T01:01:59;34.45;;;18.60;;
17595;SDS011;8916;47.086;15.920;2023-01-09T01:04:28;38.40;;;18.00;;
17595;SDS011;8916;47.086;15.920;2023-01-09T01:07:15;33.97;;;17.85;;
17595;SDS011;8916;47.086;15.920;2023-01-09T01:10:02;35.23;;;19.30;;
17595;SDS011;8916;47.086;15.920;2023-01-09T01:12:33;37.85;;;18.73;;
17595;SDS011;8916;47.086;15.920;2023-01-09T01:15:04;36.80;;;19.25;;
17595;SDS011;8916;47.086;15.920;2023-01-09T01:17:35;41.67;;;20.73;;
17595;SDS011;8916;47.086;15.920;2023-01-09T01:20:08;33.38;;;19.42;;
17595;SDS011;8916;47.086;15.920;2023-01-09T01:22:40;37.97;;;20.63;;
17595;SDS011;8916;47.086;15.920;2023-01-09T01:25:11;33.50;;;19.40;;
17595;SDS011;8916;47.086;15.920;2023-01-09T01:27:43;33.95;;;17.58;;
17595;SDS011;8916;47.086;15.920;2023-01-09T01:30:15;40.58;;;20.83;;
17595;SDS011;8916;47.086;15.920;2023-01-09T01:32:45;36.78;;;18.58;;
17595;SDS011;8916;47.086;15.920;2023-01-09T01:35:14;33.05;;;18.40;;
17595;SDS011;8916;47.086;15.920;2023-01-09T01:37:43;35.65;;;18.95;;
17595;SDS011;8916;47.086;15.920;2023-01-09T01:40:16;33.35;;;19.17;;
17595;SDS011;8916;47.086;15.920;2023-01-09T01:42:46;37.45;;;19.27;;
17595;SDS011;8916;47.086;15.920;2023-01-09T01:45:19;30.63;;;18.35;;
17595;SDS011;8916;47.086;15.920;2023-01-09T01:47:53;34.03;;;18.00;;
17595;SDS011;8916;47.086;15.920;2023-01-09T01:50:27;31.88;;;17.40;;
17595;SDS011;8916;47.086;15.920;2023-01-09T01:53:06;33.53;;;17.85;;
17595;SDS011;8916;47.086;15.920;2023-01-09T01:55:41;29.85;;;17.98;;
17595;SDS011;8916;47.086;15.920;2023-01-09T01:58:18;27.67;;;17.95;;
17595;SDS011;8916;47.086;15.920;2023-01-09T02:00:49;30.88;;;18.00;;
17595;SDS011;8916;47.086;15.920;2023-01-09T02:03:21;27.77;;;15.80;;
17595;SDS011;8916;47.086;15.920;2023-01-09T02:05:53;29.58;;;17.42;;
17595;SDS011;8916;47.086;15.920;2023-01-09T02:08:23;32.55;;;17.90;;
17595;SDS011;8916;47.086;15.920;2023-01-09T02:10:54;30.83;;;16.70;;
17595;SDS011;8916;47.086;15.920;2023-01-09T02:13:24;33.03;;;18.25;;
17595;SDS011;8916;47.086;15.920;2023-01-09T02:16:02;32.03;;;17.35;;
17595;SDS011;8916;47.086;15.920;2023-01-09T02:19:03;34.60;;;19.45;;
17595;SDS011;8916;47.086;15.920;2023-01-09T02:21:54;35.38;;;17.70;;
17595;SDS011;8916;47.086;15.920;2023-01-09T02:24:46;31.40;;;16.90;;
17595;SDS011;8916;47.086;15.920;2023-01-09T02:27:45;31.67;;;17.48;;
17595;SDS011;8916;47.086;15.920;2023-01-09T02:30:49;27.02;;;15.82;;
17595;SDS011;8916;47.086;15.920;2023-01-09T02:33:29;25.52;;;15.57;;
17595;SDS011;8916;47.086;15.920;2023-01-09T02:36:11;28.98;;;16.80;;
17595;SDS011;8916;47.086;15.920;2023-01-09T02:38:53;28.30;;;16.08;;
17595;SDS011;8916;47.086;15.920;2023-01-09T02:41:39;32.40;;;17.60;;
17595;SDS011;8916;47.086;15.920;2023-01-09T02:44:19;33.67;;;17.85;;
17595;SDS011;8916;47.086;15.920;2023-01-09T02:47:02;30.23;;;17.08;;
17595;SDS011;8916;47.086;15.920;2023-01-09T02:49:33;34.88;;;17.95;;
17595;SDS011;8916;47.086;15.920;2023-01-09T02:52:12;31.20;;;16.67;;
17595;SDS011;8916;47.086;15.920;2023-01-09T02:54:59;23.98;;;12.05;;
17595;SDS011;8916;47.086;15.920;2023-01-09T02:57:41;28.02;;;15.93;;
17595;SDS011;8916;47.086;15.920;2023-01-09T03:00:27;23.70;;;13.80;;
17595;SDS011;8916;47.086;15.920;2023-01-09T03:03:08;20.70;;;10.38;;
17595;SDS011;8916;47.086;15.920;2023-01-09T03:05:46;22.08;;;12.07;;
17595;SDS011;8916;47.086;15.920;2023-01-09T03:08:24;16.63;;;8.27;;
17595;SDS011;8916;47.086;15.920;2023-01-09T03:11:02;13.55;;;7.70;;
17595;SDS011;8916;47.086;15.920;2023-01-09T03:13:36;9.85;;;6.28;;
17595;SDS011;8916;47.086;15.920;2023-01-09T03:16:14;13.20;;;5.15;;
17595;SDS011;8916;47.086;15.920;2023-01-09T03:18:50;13.30;;;4.60;;
17595;SDS011;8916;47.086;15.920;2023-01-09T03:21:21;7.43;;;4.00;;
17595;SDS011;8916;47.086;15.920;2023-01-09T03:23:51;6.78;;;3.78;;
17595;SDS011;8916;47.086;15.920;2023-01-09T03:26:23;6.82;;;3.30;;
17595;SDS011;8916;47.086;15.920;2023-01-09T03:28:55;7.38;;;3.95;;
17595;SDS011;8916;47.086;15.920;2023-01-09T03:31:26;5.82;;;2.83;;
17595;SDS011;8916;47.086;15.920;2023-01-09T03:33:56;5.97;;;2.72;;
17595;SDS011;8916;47.086;15.920;2023-01-09T03:36:26;6.85;;;3.00;;
17595;SDS011;8916;47.086;15.920;2023-01-09T03:38:56;7.15;;;3.05;;
17595;SDS011;8916;47.086;15.920;2023-01-09T03:41:25;7.40;;;3.58;;
17595;SDS011;8916;47.086;15.920;2023-01-09T03:43:55;6.13;;;3.08;;
17595;SDS011;8916;47.086;15.920;2023-01-09T03:46:24;5.72;;;2.55;;
17595;SDS011;8916;47.086;15.920;2023-01-09T03:48:53;5.13;;;2.58;;
17595;SDS011;8916;47.086;15.920;2023-01-09T03:51:24;4.13;;;2.90;;
17595;SDS011;8916;47.086;15.920;2023-01-09T03:53:54;4.72;;;2.78;;
17595;SDS011;8916;47.086;15.920;2023-01-09T03:56:23;5.47;;;2.92;;
17595;SDS011;8916;47.086;15.920;2023-01-09T03:58:52;4.15;;;2.72;;
17595;SDS011;8916;47.086;15.920;2023-01-09T04:01:22;3.97;;;2.75;;
17595;SDS011;8916;47.086;15.920;2023-01-09T04:03:51;5.07;;;3.20;;
17595;SDS011;8916;47.086;15.920;2023-01-09T04:06:20;4.75;;;2.75;;
17595;SDS011;8916;47.086;15.920;2023-01-09T04:08:51;4.13;;;2.63;;
17595;SDS011;8916;47.086;15.920;2023-01-09T04:11:21;5.57;;;2.55;;
17595;SDS011;8916;47.086;15.920;2023-01-09T04:13:50;3.55;;;2.50;;
17595;SDS011;8916;47.086;15.920;2023-01-09T04:16:19;6.72;;;4.15;;
17595;SDS011;8916;47.086;15.920;2023-01-09T04:18:48;10.05;;;5.20;;
17595;SDS011;8916;47.086;15.920;2023-01-09T04:21:18;9.75;;;5.35;;
17595;SDS011;8916;47.086;15.920;2023-01-09T04:23:56;8.05;;;5.28;;
17595;SDS011;8916;47.086;15.920;2023-01-09T04:26:25;10.98;;;5.60;;
17595;SDS011;8916;47.086;15.920;2023-01-09T04:28:54;13.65;;;6.28;;
17595;SDS011;8916;47.086;15.920;2023-01-09T04:31:24;13.50;;;6.18;;
17595;SDS011;8916;47.086;15.920;2023-01-09T04:33:53;10.13;;;6.32;;
17595;SDS011;8916;47.086;15.920;2023-01-09T04:36:25;13.07;;;6.50;;
17595;SDS011;8916;47.086;15.920;2023-01-09T04:38:56;15.52;;;6.85;;
17595;SDS011;8916;47.086;15.920;2023-01-09T04:41:28;14.68;;;6.78;;
17595;SDS011;8916;47.086;15.920;2023-01-09T04:44:21;13.85;;;7.03;;
17595;SDS011;8916;47.086;15.920;2023-01-09T04:46:53;12.45;;;6.90;;
17595;SDS011;8916;47.086;15.920;2023-01-09T04:49:25;14.68;;;6.80;;
17595;SDS011;8916;47.086;15.920;2023-01-09T04:51:54;12.32;;;7.53;;
17595;SDS011;8916;47.086;15.920;2023-01-09T04:54:25;13.18;;;7.63;;
17595;SDS011;8916;47.086;15.920;2023-01-09T04:56:55;12.98;;;7.55;;
17595;SDS011;8916;47.086;15.920;2023-01-09T04:59:24;14.77;;;7.43;;
17595;SDS011;8916;47.086;15.920;2023-01-09T05:01:53;13.05;;;7.95;;
17595;SDS011;8916;47.086;15.920;2023-01-09T05:04:24;13.73;;;7.28;;
17595;SDS011;8916;47.086;15.920;2023-01-09T05:06:54;12.85;;;7.40;;
17595;SDS011;8916;47.086;15.920;2023-01-09T05:09:24;11.75;;;7.13;;
17595;SDS011;8916;47.086;15.920;2023-01-09T05:11:53;12.55;;;7.47;;
17595;SDS011;8916;47.086;15.920;2023-01-09T05:14:23;11.82;;;6.95;;
17595;SDS011;8916;47.086;15.920;2023-01-09T05:16:53;12.43;;;7.18;;
17595;SDS011;8916;47.086;15.920;2023-01-09T05:19:23;12.88;;;6.60;;
17595;SDS011;8916;47.086;15.920;2023-01-09T05:21:52;12.88;;;6.32;;
17595;SDS011;8916;47.086;15.920;2023-01-09T05:27:28;10.55;;;7.00;;
17595;SDS011;8916;47.086;15.920;2023-01-09T05:29:57;10.82;;;7.22;;
17595;SDS011;8916;47.086;15.920;2023-01-09T05:35:01;16.27;;;9.60;;
17595;SDS011;8916;47.086;15.920;2023-01-09T05:37:31;15.80;;;9.82;;
17595;SDS011;8916;47.086;15.920;2023-01-09T05:40:02;16.77;;;10.40;;
17595;SDS011;8916;47.086;15.920;2023-01-09T05:42:33;18.80;;;10.48;;
17595;SDS011;8916;47.086;15.920;2023-01-09T05:45:02;16.42;;;10.05;;
17595;SDS011;8916;47.086;15.920;2023-01-09T05:47:32;17.60;;;10.65;;
17595;SDS011;8916;47.086;15.920;2023-01-09T05:50:03;18.20;;;9.80;;
17595;SDS011;8916;47.086;15.920;2023-01-09T05:52:33;17.45;;;10.13;;
17595;SDS011;8916;47.086;15.920;2023-01-09T05:55:04;18.17;;;10.38;;
17595;SDS011;8916;47.086;15.920;2023-01-09T05:57:35;16.48;;;9.88;;
17595;SDS011;8916;47.086;15.920;2023-01-09T06:00:04;17.45;;;9.55;;
17595;SDS011;8916;47.086;15.920;2023-01-09T06:02:35;21.05;;;9.93;;
17595;SDS011;8916;47.086;15.920;2023-01-09T06:05:05;17.80;;;10.75;;
17595;SDS011;8916;47.086;15.920;2023-01-09T06:07:36;22.42;;;11.50;;
17595;SDS011;8916;47.086;15.920;2023-01-09T06:10:09;19.80;;;11.23;;
17595;SDS011;8916;47.086;15.920;2023-01-09T06:12:40;19.42;;;11.07;;
17595;SDS011;8916;47.086;15.920;2023-01-09T06:15:16;22.15;;;11.93;;
17595;SDS011;8916;47.086;15.920;2023-01-09T06:17:46;19.77;;;11.25;;
17595;SDS011;8916;47.086;15.920;2023-01-09T06:20:15;20.77;;;10.38;;
17595;SDS011;8916;47.086;15.920;2023-01-09T06:22:45;15.35;;;9.63;;
17595;SDS011;8916;47.086;15.920;2023-01-09T06:25:19;18.40;;;10.20;;
17595;SDS011;8916;47.086;15.920;2023-01-09T06:27:49;20.02;;;10.43;;
17595;SDS011;8916;47.086;15.920;2023-01-09T06:30:19;22.77;;;12.27;;
17595;SDS011;8916;47.086;15.920;2023-01-09T06:32:48;17.42;;;10.75;;
17595;SDS011;8916;47.086;15.920;2023-01-09T06:35:18;22.00;;;11.82;;
17595;SDS011;8916;47.086;15.920;2023-01-09T06:37:48;27.70;;;13.20;;
17595;SDS011;8916;47.086;15.920;2023-01-09T06:40:18;28.50;;;13.32;;
17595;SDS011;8916;47.086;15.920;2023-01-09T06:42:48;23.60;;;12.98;;
17595;SDS011;8916;47.086;15.920;2023-01-09T06:45:18;24.17;;;13.88;;
17595;SDS011;8916;47.086;15.920;2023-01-09T06:47:47;25.88;;;11.88;;
17595;SDS011;8916;47.086;15.920;2023-01-09T06:50:16;23.48;;;11.05;;
17595;SDS011;8916;47.086;15.920;2023-01-09T06:52:45;20.13;;;10.85;;
17595;SDS011;8916;47.086;15.920;2023-01-09T06:55:15;19.55;;;11.07;;
17595;SDS011;8916;47.086;15.920;2023-01-09T06:57:48;18.30;;;10.80;;
17595;SDS011;8916;47.086;15.920;2023-01-09T07:00:18;19.45;;;11.80;;
17595;SDS011;8916;47.086;15.920;2023-01-09T07:02:48;20.75;;;11.80;;
17595;SDS011;8916;47.086;15.920;2023-01-09T07:05:17;18.88;;;10.05;;
17595;SDS011;8916;47.086;15.920;2023-01-09T07:07:47;32.65;;;12.20;;
17595;SDS011;8916;47.086;15.920;2023-01-09T07:10:16;22.08;;;10.98;;
17595;SDS011;8916;47.086;15.920;2023-01-09T07:12:47;22.85;;;12.15;;
17595;SDS011;8916;47.086;15.920;2023-01-09T07:15:16;20.05;;;11.48;;
17595;SDS011;8916;47.086;15.920;2023-01-09T07:17:45;24.50;;;11.25;;
17595;SDS011;8916;47.086;15.920;2023-01-09T07:20:16;24.88;;;11.55;;
17595;SDS011;8916;47.086;15.920;2023-01-09T07:22:45;38.10;;;11.60;;
17595;SDS011;8916;47.086;15.920;2023-01-09T07:25:15;19.80;;;10.13;;
17595;SDS011;8916;47.086;15.920;2023-01-09T07:27:44;20.38;;;10.63;;
17595;SDS011;8916;47.086;15.920;2023-01-09T07:30:15;20.08;;;10.77;;
17595;SDS011;8916;47.086;15.920;2023-01-09T07:32:45;19.15;;;11.10;;
17595;SDS011;8916;47.086;15.920;2023-01-09T07:35:14;19.25;;;10.13;;
17595;SDS011;8916;47.086;15.920;2023-01-09T07:37:45;18.15;;;10.63;;
17595;SDS011;8916;47.086;15.920;2023-01-09T07:40:14;20.85;;;11.13;;
17595;SDS011;8916;47.086;15.920;2023-01-09T07:42:43;21.38;;;10.45;;
17595;SDS011;8916;47.086;15.920;2023-01-09T07:45:14;21.30;;;10.23;;
17595;SDS011;8916;47.086;15.920;2023-01-09T07:47:43;17.23;;;9.63;;
17595;SDS011;8916;47.086;15.920;2023-01-09T07:50:13;17.00;;;9.90;;
17595;SDS011;8916;47.086;15.920;2023-01-09T07:52:43;15.57;;;9.38;;
17595;SDS011;8916;47.086;15.920;2023-01-09T07:55:13;18.77;;;9.15;;
17595;SDS011;8916;47.086;15.920;2023-01-09T07:57:46;17.80;;;10.38;;
17595;SDS011;8916;47.086;15.920;2023-01-09T08:00:19;21.95;;;9.23;;
17595;SDS011;8916;47.086;15.920;2023-01-09T08:02:52;14.75;;;8.50;;
17595;SDS011;8916;47.086;15.920;2023-01-09T08:05:21;14.38;;;8.38;;
17595;SDS011;8916;47.086;15.920;2023-01-09T08:07:50;16.05;;;8.70;;
17595;SDS011;8916;47.086;15.920;2023-01-09T08:10:20;19.30;;;9.60;;
17595;SDS011;8916;47.086;15.920;2023-01-09T08:12:49;16.77;;;8.68;;
17595;SDS011;8916;47.086;15.920;2023-01-09T08:15:20;23.73;;;9.98;;
17595;SDS011;8916;47.086;15.920;2023-01-09T08:17:49;18.95;;;9.40;;
17595;SDS011;8916;47.086;15.920;2023-01-09T08:20:19;18.50;;;11.00;;
17595;SDS011;8916;47.086;15.920;2023-01-09T08:22:48;17.92;;;10.95;;
17595;SDS011;8916;47.086;15.920;2023-01-09T08:25:19;19.15;;;11.43;;
17595;SDS011;8916;47.086;15.920;2023-01-09T08:27:49;20.42;;;11.68;;
17595;SDS011;8916;47.086;15.920;2023-01-09T08:30:20;18.30;;;11.35;;
17595;SDS011;8916;47.086;15.920;2023-01-09T08:32:49;24.75;;;12.52;;
17595;SDS011;8916;47.086;15.920;2023-01-09T08:35:20;23.00;;;11.52;;
17595;SDS011;8916;47.086;15.920;2023-01-09T08:37:50;18.73;;;11.25;;
17595;SDS011;8916;47.086;15.920;2023-01-09T08:40:19;19.15;;;10.93;;
17595;SDS011;8916;47.086;15.920;2023-01-09T08:42:48;19.33;;;11.23;;
17595;SDS011;8916;47.086;15.920;2023-01-09T08:45:36;25.52;;;12.45;;
17595;SDS011;8916;47.086;15.920;2023-01-09T08:48:23;20.33;;;10.75;;
17595;SDS011;8916;47.086;15.920;2023-01-09T08:50:53;20.63;;;10.90;;
17595;SDS011;8916;47.086;15.920;2023-01-09T08:53:22;23.38;;;12.18;;
17595;SDS011;8916;47.086;15.920;2023-01-09T08:55:51;22.52;;;11.93;;
17595;SDS011;8916;47.086;15.920;2023-01-09T08:58:21;20.70;;;12.05;;
17595;SDS011;8916;47.086;15.920;2023-01-09T09:00:51;20.83;;;11.70;;
17595;SDS011;8916;47.086;15.920;2023-01-09T09:03:21;25.70;;;12.10;;
17595;SDS011;8916;47.086;15.920;2023-01-09T09:05:50;23.95;;;12.70;;
17595;SDS011;8916;47.086;15.920;2023-01-09T09:08:19;24.75;;;12.25;;
17595;SDS011;8916;47.086;15.920;2023-01-09T09:10:48;22.00;;;12.00;;
17595;SDS011;8916;47.086;15.920;2023-01-09T09:13:17;19.55;;;10.95;;
17595;SDS011;8916;47.086;15.920;2023-01-09T09:15:47;19.63;;;11.43;;
17595;SDS011;8916;47.086;15.920;2023-01-09T09:18:18;20.40;;;11.15;;
17595;SDS011;8916;47.086;15.920;2023-01-09T09:20:47;20.13;;;10.85;;
17595;SDS011;8916;47.086;15.920;2023-01-09T09:23:16;21.55;;;9.30;;
17595;SDS011;8916;47.086;15.920;2023-01-09T09:25:46;19.70;;;10.40;;
17595;SDS011;8916;47.086;15.920;2023-01-09T09:28:15;28.40;;;9.82;;
17595;SDS011;8916;47.086;15.920;2023-01-09T09:30:44;21.27;;;9.90;;
17595;SDS011;8916;47.086;15.920;2023-01-09T09:33:13;20.30;;;10.70;;
17595;SDS011;8916;47.086;15.920;2023-01-09T09:35:44;20.02;;;10.10;;
17595;SDS011;8916;47.086;15.920;2023-01-09T09:38:13;23.52;;;9.80;;
17595;SDS011;8916;47.086;15.920;2023-01-09T09:40:46;20.35;;;9.38;;
17595;SDS011;8916;47.086;15.920;2023-01-09T09:44:05;19.00;;;10.38;;
17595;SDS011;8916;47.086;15.920;2023-01-09T09:47:16;18.08;;;9.50;;
17595;SDS011;8916;47.086;15.920;2023-01-09T09:50:01;18.08;;;10.02;;
17595;SDS011;8916;47.086;15.920;2023-01-09T09:52:44;20.05;;;9.82;;
17595;SDS011;8916;47.086;15.920;2023-01-09T09:55:24;26.20;;;10.60;;
17595;SDS011;8916;47.086;15.920;2023-01-09T09:58:01;21.42;;;10.40;;
17595;SDS011;8916;47.086;15.920;2023-01-09T10:00:34;17.92;;;9.75;;
17595;SDS011;8916;47.086;15.920;2023-01-09T10:03:04;21.63;;;10.85;;
17595;SDS011;8916;47.086;15.920;2023-01-09T10:05:41;21.13;;;10.60;;
17595;SDS011;8916;47.086;15.920;2023-01-09T10:08:18;22.55;;;10.98;;
17595;SDS011;8916;47.086;15.920;2023-01-09T10:10:58;21.33;;;10.00;;
17595;SDS011;8916;47.086;15.920;2023-01-09T10:13:28;17.38;;;9.90;;
17595;SDS011;8916;47.086;15.920;2023-01-09T10:16:20;19.10;;;11.15;;
17595;SDS011;8916;47.086;15.920;2023-01-09T10:19:05;20.48;;;10.45;;
17595;SDS011;8916;47.086;15.920;2023-01-09T10:21:49;20.08;;;10.25;;
17595;SDS011;8916;47.086;15.920;2023-01-09T10:24:33;22.17;;;10.38;;
17595;SDS011;8916;47.086;15.920;2023-01-09T10:27:20;20.20;;;9.57;;
17595;SDS011;8916;47.086;15.920;2023-01-09T10:30:07;14.45;;;8.95;;
17595;SDS011;8916;47.086;15.920;2023-01-09T10:32:56;18.17;;;9.38;;
17595;SDS011;8916;47.086;15.920;2023-01-09T10:35:37;14.70;;;9.23;;
17595;SDS011;8916;47.086;15.920;2023-01-09T10:38:21;18.93;;;8.97;;
17595;SDS011;8916;47.086;15.920;2023-01-09T10:40:58;17.25;;;9.50;;
17595;SDS011;8916;47.086;15.920;2023-01-09T10:43:35;22.33;;;10.07;;
17595;SDS011;8916;47.086;15.920;2023-01-09T10:46:14;20.15;;;9.52;;
17595;SDS011;8916;47.086;15.920;2023-01-09T10:48:49;20.42;;;8.80;;
17595;SDS011;8916;47.086;15.920;2023-01-09T10:51:24;22.95;;;9.52;;
17595;SDS011;8916;47.086;15.920;2023-01-09T10:53:59;25.67;;;9.25;;
17595;SDS011;8916;47.086;15.920;2023-01-09T10:56:31;20.90;;;8.93;;
17595;SDS011;8916;47.086;15.920;2023-01-09T10:59:06;17.33;;;9.55;;
17595;SDS011;8916;47.086;15.920;2023-01-09T11:01:38;20.25;;;9.57;;
17595;SDS011;8916;47.086;15.920;2023-01-09T11:04:15;21.83;;;9.55;;
17595;SDS011;8916;47.086;15.920;2023-01-09T11:06:51;19.63;;;9.13;;
17595;SDS011;8916;47.086;15.920;2023-01-09T11:09:26;16.33;;;8.30;;
17595;SDS011;8916;47.086;15.920;2023-01-09T11:11:56;18.88;;;8.77;;
17595;SDS011;8916;47.086;15.920;2023-01-09T11:14:26;19.10;;;7.90;;
17595;SDS011;8916;47.086;15.920;2023-01-09T11:16:58;14.68;;;8.18;;
17595;SDS011;8916;47.086;15.920;2023-01-09T11:19:30;15.35;;;8.20;;
17595;SDS011;8916;47.086;15.920;2023-01-09T11:22:06;17.85;;;8.63;;
17595;SDS011;8916;47.086;15.920;2023-01-09T11:24:42;18.10;;;8.80;;
17595;SDS011;8916;47.086;15.920;2023-01-09T11:27:16;14.43;;;8.30;;
17595;SDS011;8916;47.086;15.920;2023-01-09T11:30:03;15.98;;;8.90;;
17595;SDS011;8916;47.086;15.920;2023-01-09T11:32:50;17.17;;;9.52;;
17595;SDS011;8916;47.086;15.920;2023-01-09T11:35:21;18.80;;;9.30;;
17595;SDS011;8916;47.086;15.920;2023-01-09T11:37:57;19.90;;;9.85;;
17595;SDS011;8916;47.086;15.920;2023-01-09T11:40:34;15.10;;;10.00;;
17595;SDS011;8916;47.086;15.920;2023-01-09T11:43:20;20.35;;;10.50;;
17595;SDS011;8916;47.086;15.920;2023-01-09T11:46:00;20.15;;;9.38;;
17595;SDS011;8916;47.086;15.920;2023-01-09T11:48:37;21.15;;;10.30;;
17595;SDS011;8916;47.086;15.920;2023-01-09T11:51:21;23.77;;;12.75;;
17595;SDS011;8916;47.086;15.920;2023-01-09T11:53:54;27.45;;;12.50;;
17595;SDS011;8916;47.086;15.920;2023-01-09T11:56:46;28.65;;;13.55;;
17595;SDS011;8916;47.086;15.920;2023-01-09T11:59:19;21.10;;;13.85;;
17595;SDS011;8916;47.086;15.920;2023-01-09T12:05:05;32.25;;;14.55;;
17595;SDS011;8916;47.086;15.920;2023-01-09T12:07:50;26.05;;;13.88;;
17595;SDS011;8916;47.086;15.920;2023-01-09T12:10:44;29.00;;;15.85;;
17595;SDS011;8916;47.086;15.920;2023-01-09T12:13:38;22.83;;;13.60;;
17595;SDS011;8916;47.086;15.920;2023-01-09T12:16:22;34.35;;;13.85;;
17595;SDS011;8916;47.086;15.920;2023-01-09T12:19:09;31.45;;;12.57;;
17595;SDS011;8916;47.086;15.920;2023-01-09T12:21:56;27.13;;;14.23;;
17595;SDS011;8916;47.086;15.920;2023-01-09T12:24:41;32.72;;;17.67;;
17595;SDS011;8916;47.086;15.920;2023-01-09T12:27:46;36.90;;;20.30;;
17595;SDS011;8916;47.086;15.920;2023-01-09T12:30:31;35.63;;;18.95;;
17595;SDS011;8916;47.086;15.920;2023-01-09T12:33:26;57.75;;;31.08;;
17595;SDS011;8916;47.086;15.920;2023-01-09T12:36:09;38.65;;;20.23;;
17595;SDS011;8916;47.086;15.920;2023-01-09T12:38:47;35.95;;;16.65;;
17595;SDS011;8916;47.086;15.920;2023-01-09T12:44:42;15.75;;;8.82;;
17595;SDS011;8916;47.086;15.920;2023-01-09T12:47:27;16.15;;;9.07;;
17595;SDS011;8916;47.086;15.920;2023-01-09T12:53:43;18.40;;;10.75;;
17595;SDS011;8916;47.086;15.920;2023-01-09T12:56:19;22.63;;;12.20;;
17595;SDS011;8916;47.086;15.920;2023-01-09T12:58:54;19.77;;;10.85;;
17595;SDS011;8916;47.086;15.920;2023-01-09T13:01:28;18.67;;;10.30;;
17595;SDS011;8916;47.086;15.920;2023-01-09T13:04:07;26.20;;;11.68;;
17595;SDS011;8916;47.086;15.920;2023-01-09T13:06:43;17.98;;;9.50;;
17595;SDS011;8916;47.086;15.920;2023-01-09T13:09:21;17.10;;;8.65;;
17595;SDS011;8916;47.086;15.920;2023-01-09T13:11:58;17.02;;;8.43;;
17595;SDS011;8916;47.086;15.920;2023-01-09T13:14:39;9.60;;;5.18;;
17595;SDS011;8916;47.086;15.920;2023-01-09T13:17:19;6.75;;;4.57;;
17595;SDS011;8916;47.086;15.920;2023-01-09T13:19:54;8.30;;;4.60;;
17595;SDS011;8916;47.086;15.920;2023-01-09T13:22:24;9.55;;;3.75;;
17595;SDS011;8916;47.086;15.920;2023-01-09T13:25:12;4.32;;;2.40;;
17595;SDS011;8916;47.086;15.920;2023-01-09T13:28:14;7.68;;;2.28;;
17595;SDS011;8916;47.086;15.920;2023-01-09T13:31:02;6.32;;;1.85;;
17595;SDS011;8916;47.086;15.920;2023-01-09T13:33:55;3.30;;;1.60;;
17595;SDS011;8916;47.086;15.920;2023-01-09T13:36:29;3.42;;;2.10;;
17595;SDS011;8916;47.086;15.920;2023-01-09T13:39:02;4.43;;;2.00;;
17595;SDS011;8916;47.086;15.920;2023-01-09T13:41:34;4.03;;;2.00;;
17595;SDS011;8916;47.086;15.920;2023-01-09T13:44:33;5.28;;;2.00;;
17595;SDS011;8916;47.086;15.920;2023-01-09T13:47:02;12.25;;;2.50;;
17595;SDS011;8916;47.086;15.920;2023-01-09T13:52:30;10.80;;;3.72;;
17595;SDS011;8916;47.086;15.920;2023-01-09T14:00:59;6.72;;;2.47;;
17595;SDS011;8916;47.086;15.920;2023-01-09T14:03:32;11.30;;;3.15;;
17595;SDS011;8916;47.086;15.920;2023-01-09T14:06:07;8.43;;;3.47;;
17595;SDS011;8916;47.086;15.920;2023-01-09T14:08:46;8.02;;;3.53;;
17595;SDS011;8916;47.086;15.920;2023-01-09T14:11:32;10.05;;;5.38;;
17595;SDS011;8916;47.086;15.920;2023-01-09T14:14:04;14.90;;;5.43;;
17595;SDS011;8916;47.086;15.920;2023-01-09T14:16:47;11.95;;;5.70;;
17595;SDS011;8916;47.086;15.920;2023-01-09T14:19:32;16.58;;;6.80;;
17595;SDS011;8916;47.086;15.920;2023-01-09T14:22:04;16.73;;;8.02;;
17595;SDS011;8916;47.086;15.920;2023-01-09T14:24:38;17.83;;;8.40;;
17595;SDS011;8916;47.086;15.920;2023-01-09T14:30:33;12.55;;;5.25;;
17595;SDS011;8916;47.086;15.920;2023-01-09T14:35:59;10.95;;;4.20;;
17595;SDS011;8916;47.086;15.920;2023-01-09T14:38:40;8.43;;;4.03;;
17595;SDS011;8916;47.086;15.920;2023-01-09T14:41:22;17.65;;;8.73;;
17595;SDS011;8916;47.086;15.920;2023-01-09T14:44:21;15.10;;;7.90;;
17595;SDS011;8916;47.086;15.920;2023-01-09T14:46:59;19.33;;;10.93;;
17595;SDS011;8916;47.086;15.920;2023-01-09T14:49:34;15.05;;;8.55;;
17595;SDS011;8916;47.086;15.920;2023-01-09T14:52:11;14.00;;;8.30;;
17595;SDS011;8916;47.086;15.920;2023-01-09T14:54:48;27.45;;;19.30;;
17595;SDS011;8916;47.086;15.920;2023-01-09T14:57:23;21.30;;;12.20;;
17595;SDS011;8916;47.086;15.920;2023-01-09T14:59:58;16.20;;;10.85;;
17595;SDS011;8916;47.086;15.920;2023-01-09T15:02:31;16.08;;;9.50;;
17595;SDS011;8916;47.086;15.920;2023-01-09T15:05:04;10.50;;;6.70;;
17595;SDS011;8916;47.086;15.920;2023-01-09T15:07:38;6.20;;;4.22;;
17595;SDS011;8916;47.086;15.920;2023-01-09T15:10:14;13.63;;;7.55;;
17595;SDS011;8916;47.086;15.920;2023-01-09T15:12:48;9.00;;;5.03;;
17595;SDS011;8916;47.086;15.920;2023-01-09T15:15:19;12.07;;;8.30;;
17595;SDS011;8916;47.086;15.920;2023-01-09T15:17:52;18.35;;;10.25;;
17595;SDS011;8916;47.086;15.920;2023-01-09T15:20:25;17.70;;;8.82;;
17595;SDS011;8916;47.086;15.920;2023-01-09T15:22:57;9.63;;;6.28;;
17595;SDS011;8916;47.086;15.920;2023-01-09T15:25:28;16.20;;;7.38;;
17595;SDS011;8916;47.086;15.920;2023-01-09T15:28:21;22.92;;;9.98;;
17595;SDS011;8916;47.086;15.920;2023-01-09T15:30:57;32.30;;;14.23;;
17595;SDS011;8916;47.086;15.920;2023-01-09T15:33:33;21.70;;;9.90;;
17595;SDS011;8916;47.086;15.920;2023-01-09T15:36:06;13.75;;;6.22;;
17595;SDS011;8916;47.086;15.920;2023-01-09T15:38:42;5.25;;;2.20;;
17595;SDS011;8916;47.086;15.920;2023-01-09T15:41:14;4.97;;;3.00;;
17595;SDS011;8916;47.086;15.920;2023-01-09T15:44:11;1.60;;;1.30;;